KDTN/DTN METAR and TAF weather

Enter ICAO airport designator
Station Type Date Time Source
KDTN METAR 2018/07/21 21:53 UTC NOAA

KDTN 212153Z 24011KT 10SM CLR 41/17 A2987 RMK AO2 SLP111 T04060167


Station Type Date Time Source
KDTN Decoded METAR 2018/07/21 21:53 UTC NOAA

SHREVEPORT DOWNTOWN AIRPORT, LA, United States (KDTN) 32-32N 093-45W 53M
Jul 21, 2018 - 05:53 PM EDT / 2018.07.21 2153 UTC
Wind: from the WSW (240 degrees) at 13 MPH (11 KT):0
Visibility: 10 mile(s):0
Sky conditions: clear
Temperature: 105.1 F (40.6 C)
Heat index: 107.1 F (41.7 C):1
Dew Point: 62.1 F (16.7 C)
Relative Humidity: 24%
Pressure (altimeter): 29.87 in. Hg (1011 hPa)
ob: KDTN 212153Z 24011KT 10SM CLR 41/17 A2987 RMK AO2 SLP111 T04060167
cycle: 22

Station Type Date Time Source
KDTN TAF UTC NOAA

Error!


Example: see airport list